createdAt,value
2019-02-21T00:01:07.490Z,2.68
2019-02-21T00:02:16.390Z,2.53
2019-02-21T00:03:24.262Z,2.49
2019-02-21T00:04:27.072Z,2.49
2019-02-21T00:05:31.783Z,2.51
2019-02-21T00:06:39.182Z,2.59
2019-02-21T00:07:41.554Z,2.59
2019-02-21T00:08:47.548Z,2.65
2019-02-21T00:09:50.463Z,2.66
2019-02-21T00:10:53.742Z,2.75
2019-02-21T00:11:56.557Z,2.80
2019-02-21T00:12:59.396Z,2.78
2019-02-21T00:14:05.397Z,2.75
2019-02-21T00:15:08.350Z,2.71
2019-02-21T00:16:11.176Z,2.73
2019-02-21T00:17:14.010Z,2.67
2019-02-21T00:18:16.844Z,2.62
2019-02-21T00:19:19.662Z,2.63
2019-02-21T00:20:22.853Z,2.62
2019-02-21T00:21:25.642Z,2.60
2019-02-21T00:22:28.472Z,2.60
2019-02-21T00:23:31.694Z,2.55
2019-02-21T00:24:34.500Z,2.51
2019-02-21T00:25:38.565Z,2.51
2019-02-21T00:26:44.101Z,2.48
2019-02-21T00:27:46.201Z,2.29
2019-02-21T00:28:49.001Z,2.27
2019-02-21T00:29:51.807Z,2.23
2019-02-21T00:30:57.440Z,2.14
2019-02-21T00:32:00.326Z,2.14
2019-02-21T00:33:03.428Z,2.05
2019-02-21T00:34:06.252Z,2.01
2019-02-21T00:35:09.082Z,1.96
2019-02-21T00:36:14.970Z,1.97
2019-02-21T00:37:17.844Z,1.97
2019-02-21T00:38:20.650Z,1.94
2019-02-21T00:39:23.777Z,1.83
2019-02-21T00:40:26.608Z,1.80
2019-02-21T00:41:29.454Z,1.81
2019-02-21T00:42:32.321Z,1.81
2019-02-21T00:43:38.338Z,1.76
2019-02-21T00:44:41.157Z,1.69
2019-02-21T00:45:44.284Z,1.57
2019-02-21T00:46:49.417Z,1.67
2019-02-21T00:47:52.288Z,1.68
2019-02-21T00:48:55.055Z,1.71
2019-02-21T00:49:57.882Z,1.74
2019-02-21T00:51:01.585Z,1.74
2019-02-21T00:52:04.821Z,1.79
2019-02-21T00:53:07.706Z,1.87
2019-02-21T00:54:13.847Z,1.87
2019-02-21T00:55:20.581Z,1.88
2019-02-21T00:56:23.842Z,1.83
2019-02-21T00:57:26.724Z,1.77
2019-02-21T00:58:29.875Z,1.70
2019-02-21T00:59:35.151Z,1.70
2019-02-21T01:00:46.230Z,1.78
2019-02-21T01:01:42.416Z,1.83
2019-02-21T01:02:45.267Z,1.85
2019-02-21T01:03:48.675Z,1.73
2019-02-21T01:04:54.824Z,1.64
2019-02-21T01:05:59.610Z,1.64
2019-02-21T01:07:02.524Z,1.68
2019-02-21T01:08:05.747Z,1.68
2019-02-21T01:09:08.645Z,1.72
2019-02-21T01:10:11.435Z,1.74
2019-02-21T01:11:14.655Z,1.77
2019-02-21T01:12:17.499Z,1.89
2019-02-21T01:13:20.343Z,1.90
2019-02-21T01:14:23.280Z,1.90
2019-02-21T01:15:26.089Z,1.95
2019-02-21T01:16:29.931Z,1.95
2019-02-21T01:17:33.025Z,2.12
2019-02-21T01:18:35.829Z,2.11
2019-02-21T01:19:39.161Z,2.11
2019-02-21T01:20:41.960Z,2.13
2019-02-21T01:21:44.776Z,2.10
2019-02-21T01:22:48.086Z,2.06
2019-02-21T01:23:51.182Z,2.06
2019-02-21T01:24:54.126Z,2.03
2019-02-21T01:25:57.039Z,2.03
2019-02-21T01:26:59.985Z,2.17
2019-02-21T01:28:02.983Z,2.22
2019-02-21T01:29:05.789Z,2.12
2019-02-21T01:30:08.995Z,2.12
2019-02-21T01:31:11.856Z,2.34
2019-02-21T01:32:14.691Z,2.48
2019-02-21T01:33:17.547Z,2.58
2019-02-21T01:34:20.367Z,2.69
2019-02-21T01:35:23.632Z,2.69
2019-02-21T01:36:29.583Z,2.77
2019-02-21T01:37:32.412Z,2.54
2019-02-21T01:38:35.250Z,2.43
2019-02-21T01:39:38.049Z,2.43
2019-02-21T01:40:40.940Z,2.36
2019-02-21T01:41:43.752Z,2.33
2019-02-21T01:42:46.849Z,2.32
2019-02-21T01:43:49.752Z,2.32
2019-02-21T01:44:52.578Z,2.27
2019-02-21T01:45:55.379Z,2.27
2019-02-21T01:46:58.275Z,2.19
2019-02-21T01:48:01.101Z,1.99
2019-02-21T01:49:04.286Z,1.94
2019-02-21T01:50:07.121Z,1.79
2019-02-21T01:51:09.920Z,1.79
2019-02-21T01:52:12.799Z,1.87
2019-02-21T01:53:16.046Z,1.68
2019-02-21T01:54:18.947Z,1.70
2019-02-21T01:55:22.102Z,1.60
2019-02-21T01:56:27.113Z,1.60
2019-02-21T01:57:29.984Z,1.55
2019-02-21T01:58:32.773Z,1.59
2019-02-21T01:59:35.683Z,1.55
2019-02-21T02:00:38.496Z,1.50
2019-02-21T02:01:41.622Z,1.65
2019-02-21T02:02:44.414Z,1.83
2019-02-21T02:03:47.211Z,1.97
2019-02-21T02:04:50.137Z,1.97
2019-02-21T02:05:53.018Z,2.13
2019-02-21T02:06:56.325Z,2.15
2019-02-21T02:07:59.457Z,2.13
2019-02-21T02:09:02.325Z,2.12
2019-02-21T02:10:05.229Z,2.05
2019-02-21T02:11:08.054Z,2.10
2019-02-21T02:12:10.915Z,2.04
2019-02-21T02:13:24.090Z,2.01
2019-02-21T02:14:18.230Z,2.01
2019-02-21T02:15:21.124Z,2.01
2019-02-21T02:16:24.452Z,2.03
2019-02-21T02:17:27.330Z,1.94
2019-02-21T02:18:30.113Z,1.94
2019-02-21T02:19:32.893Z,1.80
2019-02-21T02:20:36.489Z,1.80
2019-02-21T02:21:39.295Z,1.75
2019-02-21T02:22:42.587Z,1.69
2019-02-21T02:23:45.448Z,1.63
2019-02-21T02:24:48.313Z,1.75
2019-02-21T02:25:51.132Z,1.64
2019-02-21T02:26:54.229Z,1.57
2019-02-21T02:27:57.102Z,1.56
2019-02-21T02:29:00.404Z,1.56
2019-02-21T02:30:03.224Z,1.55
2019-02-21T02:31:06.071Z,1.61
2019-02-21T02:32:09.797Z,1.55
2019-02-21T02:33:13.099Z,1.45
2019-02-21T02:34:15.921Z,1.34
2019-02-21T02:35:18.700Z,1.35
2019-02-21T02:36:21.525Z,1.37
2019-02-21T02:37:24.330Z,1.49
2019-02-21T02:38:27.509Z,1.57
2019-02-21T02:39:30.928Z,1.58
2019-02-21T02:40:34.130Z,1.58
2019-02-21T02:41:36.940Z,1.58
2019-02-21T02:42:39.730Z,1.58
2019-02-21T02:43:42.497Z,1.52
2019-02-21T02:44:48.160Z,1.57
2019-02-21T02:45:51.298Z,1.57
2019-02-21T02:46:54.097Z,1.57
2019-02-21T02:47:56.893Z,1.60
2019-02-21T02:48:59.739Z,1.60
2019-02-21T02:50:02.650Z,1.47
2019-02-21T02:51:05.617Z,1.34
2019-02-21T02:52:09.148Z,1.24
2019-02-21T02:53:12.047Z,1.12
2019-02-21T02:54:14.829Z,1.10
2019-02-21T02:55:17.709Z,1.13
2019-02-21T02:56:20.940Z,1.12
2019-02-21T02:57:24.126Z,1.12
2019-02-21T02:58:27.204Z,1.08
2019-02-21T02:59:40.403Z,1.11
2019-02-21T03:00:34.518Z,1.23
2019-02-21T03:01:37.363Z,1.20
2019-02-21T03:02:40.225Z,1.33
2019-02-21T03:03:43.044Z,1.37
2019-02-21T03:04:46.173Z,1.37
2019-02-21T03:05:48.998Z,1.33
2019-02-21T03:06:51.875Z,1.33
2019-02-21T03:07:54.974Z,1.31
2019-02-21T03:08:58.053Z,1.31
2019-02-21T03:10:01.230Z,1.35
2019-02-21T03:11:04.332Z,1.35
2019-02-21T03:12:07.138Z,1.40
2019-02-21T03:13:09.999Z,1.61
2019-02-21T03:14:12.923Z,1.66
2019-02-21T03:15:16.181Z,1.73
2019-02-21T03:16:18.997Z,1.77
2019-02-21T03:17:23.926Z,1.86
2019-02-21T03:18:31.650Z,1.85
2019-02-21T03:19:35.504Z,1.66
2019-02-21T03:20:38.526Z,1.64
2019-02-21T03:21:42.278Z,1.61
2019-02-21T03:22:45.138Z,1.61
2019-02-21T03:23:48.424Z,1.69
2019-02-21T03:24:51.351Z,1.68
2019-02-21T03:25:54.278Z,1.56
2019-02-21T03:26:57.151Z,1.57
2019-02-21T03:28:00.050Z,1.54
2019-02-21T03:29:02.832Z,1.39
2019-02-21T03:30:06.048Z,1.30
2019-02-21T03:31:08.921Z,1.40
2019-02-21T03:32:11.687Z,1.52
2019-02-21T03:33:14.632Z,1.52
2019-02-21T03:34:17.455Z,1.75
2019-02-21T03:35:20.350Z,1.65
2019-02-21T03:36:23.419Z,1.65
2019-02-21T03:37:26.287Z,1.80
2019-02-21T03:38:29.105Z,1.78
2019-02-21T03:39:31.953Z,1.78
2019-02-21T03:40:34.786Z,1.82
2019-02-21T03:41:37.604Z,1.82
2019-02-21T03:42:40.675Z,1.82
2019-02-21T03:43:43.829Z,1.81
2019-02-21T03:44:46.802Z,1.81
2019-02-21T03:45:49.827Z,1.83
2019-02-21T03:46:52.685Z,1.86
2019-02-21T03:47:55.499Z,1.89
2019-02-21T03:48:58.612Z,1.98
2019-02-21T03:50:01.485Z,2.11
2019-02-21T03:51:04.290Z,2.12
2019-02-21T03:52:07.093Z,2.12
2019-02-21T03:53:11.628Z,2.11
2019-02-21T03:54:14.442Z,2.17
2019-02-21T03:55:17.519Z,2.22
2019-02-21T03:56:20.275Z,2.22
2019-02-21T03:57:23.087Z,2.23
2019-02-21T03:58:25.960Z,2.14
2019-02-21T03:59:28.736Z,2.19
2019-02-21T04:00:31.531Z,2.22
2019-02-21T04:01:34.625Z,2.22
2019-02-21T04:02:37.465Z,2.16
2019-02-21T04:03:42.069Z,2.20
2019-02-21T04:04:46.786Z,2.24
2019-02-21T04:05:49.579Z,2.13
2019-02-21T04:06:55.827Z,2.08
2019-02-21T04:08:01.709Z,2.06
2019-02-21T04:09:04.784Z,2.11
2019-02-21T04:10:08.772Z,2.16
2019-02-21T04:11:11.533Z,2.23
2019-02-21T04:12:14.322Z,2.15
2019-02-21T04:13:17.604Z,2.20
2019-02-21T04:14:23.836Z,2.21
2019-02-21T04:15:26.695Z,2.21
2019-02-21T04:16:29.500Z,2.12
2019-02-21T04:17:32.284Z,1.97
2019-02-21T04:18:35.161Z,1.97
2019-02-21T04:19:37.950Z,1.88
2019-02-21T04:20:41.054Z,1.87
2019-02-21T04:21:43.827Z,1.97
2019-02-21T04:22:46.640Z,1.89
2019-02-21T04:23:49.530Z,1.87
2019-02-21T04:24:52.402Z,1.89
2019-02-21T04:25:55.208Z,1.91
2019-02-21T04:26:58.528Z,1.86
2019-02-21T04:28:01.402Z,1.86
2019-02-21T04:29:04.255Z,1.85
2019-02-21T04:30:07.349Z,1.94
2019-02-21T04:31:10.132Z,1.88
2019-02-21T04:32:16.893Z,1.88
2019-02-21T04:33:20.381Z,1.86
2019-02-21T04:34:23.206Z,1.94
2019-02-21T04:35:26.082Z,2.05
2019-02-21T04:36:28.849Z,2.10
2019-02-21T04:37:31.662Z,2.10
2019-02-21T04:38:34.452Z,2.16
2019-02-21T04:39:37.528Z,2.24
2019-02-21T04:40:40.427Z,2.24
2019-02-21T04:41:43.762Z,2.31
2019-02-21T04:42:46.531Z,2.40
2019-02-21T04:43:49.350Z,2.40
2019-02-21T04:44:52.160Z,2.40
2019-02-21T04:45:55.259Z,2.40
2019-02-21T04:46:58.142Z,2.55
2019-02-21T04:48:00.934Z,2.54
2019-02-21T04:49:05.948Z,2.54
2019-02-21T04:50:08.713Z,2.46
2019-02-21T04:51:11.505Z,2.34
2019-02-21T04:52:14.622Z,2.38
2019-02-21T04:53:17.428Z,2.43
2019-02-21T04:54:20.243Z,2.43
2019-02-21T04:55:25.365Z,2.39
2019-02-21T04:56:28.157Z,2.33
2019-02-21T04:57:30.955Z,2.36
2019-02-21T04:58:34.035Z,2.36
2019-02-21T04:59:36.824Z,2.23
2019-02-21T05:00:39.662Z,2.29
2019-02-21T05:01:42.477Z,2.27
2019-02-21T05:02:45.319Z,2.27
2019-02-21T05:03:48.110Z,2.21
2019-02-21T05:04:51.189Z,2.25
2019-02-21T05:05:53.984Z,2.28
2019-02-21T05:06:57.810Z,2.28
2019-02-21T05:08:00.580Z,2.16
2019-02-21T05:09:04.211Z,2.08
2019-02-21T05:10:06.975Z,2.02
2019-02-21T05:11:10.060Z,2.14
2019-02-21T05:12:14.032Z,2.15
2019-02-21T05:13:16.839Z,2.19
2019-02-21T05:14:19.705Z,2.17
2019-02-21T05:15:22.488Z,2.17
2019-02-21T05:16:25.267Z,2.33
2019-02-21T05:17:29.610Z,2.41
2019-02-21T05:18:32.411Z,2.32
2019-02-21T05:19:35.270Z,2.31
2019-02-21T05:20:38.075Z,2.31
2019-02-21T05:21:40.938Z,2.33
2019-02-21T05:22:43.716Z,2.14
2019-02-21T05:23:46.829Z,2.18
2019-02-21T05:24:49.625Z,2.11
2019-02-21T05:25:54.236Z,2.17
2019-02-21T05:27:01.735Z,2.26
2019-02-21T05:28:41.195Z,2.26
2019-02-21T05:29:43.741Z,2.36
2019-02-21T05:30:47.578Z,2.46
2019-02-21T05:32:21.521Z,2.42
2019-02-21T05:33:41.482Z,2.42
2019-02-21T05:34:59.908Z,2.53
2019-02-21T05:36:21.337Z,2.60
2019-02-21T05:37:41.521Z,2.57
2019-02-21T05:39:00.924Z,2.54
2019-02-21T05:40:28.847Z,2.56
2019-02-21T05:41:44.450Z,2.48
2019-02-21T05:43:21.200Z,2.46
2019-02-21T05:44:40.908Z,2.52
2019-02-21T05:46:15.471Z,2.60
2019-02-21T05:47:35.684Z,2.60
2019-02-21T05:49:00.221Z,2.63
2019-02-21T05:50:19.508Z,2.55
2019-02-21T05:51:44.279Z,2.55
2019-02-21T05:53:02.217Z,2.55
2019-02-21T05:54:26.490Z,2.48
2019-02-21T05:55:37.447Z,2.50
2019-02-21T05:57:04.921Z,2.56
2019-02-21T05:58:32.275Z,2.66
2019-02-21T05:59:52.203Z,2.66
2019-02-21T06:01:07.949Z,2.77
2019-02-21T06:02:29.496Z,2.77
2019-02-21T06:03:46.390Z,2.75
2019-02-21T06:05:01.571Z,2.81
2019-02-21T06:06:22.998Z,2.91
2019-02-21T06:07:42.957Z,2.88
2019-02-21T06:09:08.102Z,2.77
2019-02-21T06:10:32.831Z,2.73
2019-02-21T06:12:03.192Z,2.67
2019-02-21T06:13:17.788Z,2.80
2019-02-21T06:14:36.368Z,2.79
2019-02-21T06:16:10.125Z,2.79
2019-02-21T06:17:34.049Z,2.95
2019-02-21T06:18:55.958Z,2.95
2019-02-21T06:20:33.756Z,2.80
2019-02-21T06:22:10.002Z,2.72
2019-02-21T06:23:27.288Z,2.75
2019-02-21T06:24:35.232Z,2.63
2019-02-21T06:25:51.137Z,2.62
2019-02-21T06:27:06.106Z,2.57
2019-02-21T06:28:12.599Z,2.53
2019-02-21T06:29:46.286Z,2.53
2019-02-21T06:43:48.773Z,2.73
2019-02-21T06:44:51.617Z,2.72
2019-02-21T06:45:54.489Z,2.67
2019-02-21T06:46:57.779Z,2.70
2019-02-21T06:48:00.673Z,2.70
2019-02-21T06:49:05.165Z,2.90
2019-02-21T06:50:10.345Z,2.90
2019-02-21T06:51:13.206Z,2.95
2019-02-21T06:52:16.051Z,2.89
2019-02-21T06:53:18.883Z,2.76
2019-02-21T06:54:22.537Z,2.77
2019-02-21T06:55:28.291Z,2.77
2019-02-21T06:56:31.172Z,2.68
2019-02-21T06:57:36.446Z,2.77
2019-02-21T06:58:41.976Z,2.84
2019-02-21T06:59:46.053Z,2.82
2019-02-21T07:00:49.998Z,2.81
2019-02-21T07:01:52.824Z,2.82
2019-02-21T07:02:55.649Z,2.82
2019-02-21T07:03:58.856Z,2.88
2019-02-21T07:05:01.777Z,2.94
2019-02-21T07:06:05.021Z,3.01
2019-02-21T07:07:07.940Z,2.94
2019-02-21T07:08:10.859Z,2.83
2019-02-21T07:09:13.625Z,2.83
2019-02-21T07:10:16.416Z,3.03
2019-02-21T07:11:19.306Z,3.00
2019-02-21T07:12:31.471Z,2.99
2019-02-21T07:13:34.905Z,2.97
2019-02-21T07:14:37.721Z,2.97
2019-02-21T07:15:40.567Z,3.02
2019-02-21T07:16:43.417Z,3.10
2019-02-21T07:17:49.601Z,3.11
2019-02-21T07:18:52.814Z,3.26
2019-02-21T07:19:55.663Z,3.42
2019-02-21T07:20:58.462Z,3.52
2019-02-21T07:22:01.277Z,3.55
2019-02-21T07:23:04.094Z,3.36
2019-02-21T07:24:06.962Z,3.26
2019-02-21T07:25:42.152Z,3.31
2019-02-21T07:26:46.738Z,3.38
2019-02-21T07:27:54.527Z,3.40
2019-02-21T07:28:58.366Z,3.64
2019-02-21T07:30:01.332Z,3.81
2019-02-21T07:31:04.430Z,3.81
2019-02-21T07:32:07.316Z,3.78
2019-02-21T07:33:10.261Z,3.78
2019-02-21T07:34:13.083Z,3.59
2019-02-21T07:35:15.871Z,3.55
2019-02-21T07:36:21.166Z,3.65
2019-02-21T07:37:24.355Z,3.74
2019-02-21T07:38:29.847Z,3.78
2019-02-21T07:39:35.977Z,3.71
2019-02-21T07:40:37.103Z,3.73
2019-02-21T07:41:41.684Z,3.65
2019-02-21T07:42:48.281Z,3.72
2019-02-21T07:43:51.971Z,3.86
2019-02-21T07:44:54.931Z,3.85
2019-02-21T07:45:57.829Z,3.83
2019-02-21T07:47:00.726Z,3.82
2019-02-21T07:48:05.135Z,3.78
2019-02-21T07:49:11.287Z,3.78
2019-02-21T07:50:16.930Z,3.83
2019-02-21T07:51:19.783Z,3.83
2019-02-21T07:52:22.662Z,3.83
2019-02-21T07:53:25.483Z,3.83
2019-02-21T07:54:28.343Z,3.75
2019-02-21T07:55:33.924Z,3.87
2019-02-21T07:56:42.028Z,3.90
2019-02-21T07:57:42.084Z,4.03
2019-02-21T07:58:44.963Z,4.11
2019-02-21T07:59:47.755Z,4.05
2019-02-21T08:00:50.630Z,3.82
2019-02-21T08:01:53.417Z,3.89
2019-02-21T08:02:57.937Z,3.89
2019-02-21T08:04:00.726Z,4.01
2019-02-21T08:05:05.522Z,3.93
2019-02-21T08:06:08.305Z,3.92
2019-02-21T08:07:11.414Z,3.94
2019-02-21T08:08:16.224Z,3.98
2019-02-21T08:09:20.399Z,4.09
2019-02-21T08:10:33.077Z,4.17
2019-02-21T08:11:28.133Z,4.33
2019-02-21T08:12:30.948Z,4.32
2019-02-21T08:13:34.096Z,4.32
2019-02-21T08:14:38.790Z,4.42
2019-02-21T08:15:41.623Z,4.42
2019-02-21T08:16:45.856Z,4.42
2019-02-21T08:17:49.697Z,4.39
2019-02-21T08:18:52.941Z,4.36
2019-02-21T08:20:07.282Z,4.47
2019-02-21T08:21:00.286Z,4.46
2019-02-21T08:22:03.215Z,4.44
2019-02-21T08:23:06.097Z,4.39
2019-02-21T08:24:09.509Z,4.39
2019-02-21T08:25:12.561Z,4.48
2019-02-21T08:26:15.813Z,4.51
2019-02-21T08:27:20.932Z,4.51
2019-02-21T08:28:24.266Z,4.49
2019-02-21T08:29:31.529Z,4.53
2019-02-21T08:30:34.429Z,4.56
2019-02-21T08:31:37.243Z,4.57
2019-02-21T08:32:57.311Z,4.57
2019-02-21T08:34:07.868Z,4.51
2019-02-21T08:35:12.012Z,4.36
2019-02-21T08:36:17.713Z,4.22
2019-02-21T08:37:20.530Z,4.22
2019-02-21T08:38:26.396Z,4.35
2019-02-21T08:39:34.314Z,4.44
2019-02-21T08:40:37.234Z,4.44
2019-02-21T08:41:40.444Z,4.46
2019-02-21T08:42:46.248Z,4.47
2019-02-21T08:43:51.334Z,4.55
2019-02-21T08:44:55.258Z,4.55
2019-02-21T08:45:58.083Z,4.60
2019-02-21T08:47:01.063Z,4.54
2019-02-21T08:48:05.256Z,4.32
2019-02-21T08:49:08.511Z,4.39
2019-02-21T08:50:14.329Z,4.46
2019-02-21T08:51:18.408Z,4.46
2019-02-21T08:52:26.415Z,4.56
2019-02-21T08:53:31.783Z,4.54
2019-02-21T08:54:36.728Z,4.55
2019-02-21T08:55:41.960Z,4.55
2019-02-21T08:56:44.801Z,5.10
2019-02-21T08:57:47.752Z,5.34
2019-02-21T08:58:50.850Z,-140.42
2019-02-21T08:59:54.494Z,-140.42
2019-02-21T09:01:01.738Z,-140.42
2019-02-21T09:02:06.883Z,5.74
2019-02-21T09:03:09.740Z,5.51
2019-02-21T09:04:26.340Z,5.01
2019-02-21T09:05:17.161Z,5.01
2019-02-21T09:06:20.536Z,-140.42
2019-02-21T09:07:27.783Z,-140.42
2019-02-21T09:08:37.869Z,-140.42
2019-02-21T09:09:40.798Z,6.13
2019-02-21T09:10:43.564Z,6.13
2019-02-21T09:11:46.521Z,6.13
2019-02-21T09:12:49.352Z,-140.42
2019-02-21T09:13:56.013Z,-140.42
2019-02-21T09:14:58.575Z,-140.42
2019-02-21T09:16:01.375Z,6.94
2019-02-21T09:17:04.601Z,7.62
2019-02-21T09:18:11.506Z,7.13
2019-02-21T09:19:17.638Z,7.17
2019-02-21T09:20:20.525Z,7.17
2019-02-21T09:21:24.397Z,7.75
2019-02-21T09:22:27.227Z,7.64
2019-02-21T09:23:30.040Z,7.84
2019-02-21T09:24:39.982Z,7.84
2019-02-21T09:25:37.358Z,8.52
2019-02-21T09:26:40.163Z,8.52
2019-02-21T09:27:42.998Z,9.39
2019-02-21T09:28:45.802Z,9.39
2019-02-21T09:29:52.484Z,10.09
2019-02-21T09:30:56.147Z,10.40
2019-02-21T09:32:01.332Z,10.40
2019-02-21T09:33:17.009Z,11.44
2019-02-21T09:34:20.782Z,11.44
2019-02-21T09:35:16.258Z,11.54
2019-02-21T09:36:19.807Z,11.50
2019-02-21T09:37:29.894Z,11.24
2019-02-21T09:38:34.860Z,10.57
2019-02-21T09:39:37.799Z,10.10
2019-02-21T09:40:42.671Z,10.10
2019-02-21T09:41:48.229Z,9.91
2019-02-21T09:42:50.206Z,9.97
2019-02-21T09:43:53.466Z,10.11
2019-02-21T09:44:56.315Z,10.11
2019-02-21T09:45:59.184Z,9.91
2019-02-21T09:47:02.143Z,9.73
2019-02-21T09:48:04.970Z,9.77
2019-02-21T09:49:08.041Z,9.71
2019-02-21T09:50:11.143Z,9.58
2019-02-21T09:51:13.976Z,9.33
2019-02-21T09:52:16.967Z,8.76
2019-02-21T09:53:20.207Z,8.37
2019-02-21T09:54:24.282Z,8.30
2019-02-21T09:55:29.629Z,8.27
2019-02-21T09:56:32.465Z,8.16
2019-02-21T09:57:35.363Z,8.16
2019-02-21T09:58:38.286Z,8.16
2019-02-21T09:59:43.707Z,8.19
2019-02-21T10:00:47.874Z,8.15
2019-02-21T10:01:53.184Z,8.05
2019-02-21T10:02:56.795Z,7.84
2019-02-21T10:04:00.290Z,7.72
2019-02-21T10:05:05.366Z,7.61
2019-02-21T10:06:08.348Z,7.46
2019-02-21T10:07:20.844Z,7.47
2019-02-21T10:08:27.451Z,7.47
2019-02-21T10:09:31.129Z,7.63
2019-02-21T10:10:33.935Z,7.76
2019-02-21T10:11:36.770Z,7.70
2019-02-21T10:12:39.725Z,7.52
2019-02-21T10:13:43.947Z,7.50
2019-02-21T10:14:46.768Z,7.38
2019-02-21T10:15:49.977Z,7.26
2019-02-21T10:16:53.359Z,7.26
2019-02-21T10:17:56.380Z,7.42
2019-02-21T10:18:59.215Z,7.51
2019-02-21T10:20:04.254Z,7.40
2019-02-21T10:21:09.699Z,7.40
2019-02-21T10:22:16.011Z,7.29
2019-02-21T10:23:24.402Z,7.27
2019-02-21T10:24:27.335Z,7.38
2019-02-21T10:25:30.159Z,7.50
2019-02-21T10:26:36.668Z,7.50
2019-02-21T10:27:41.684Z,7.65
2019-02-21T10:28:45.308Z,7.66
2019-02-21T10:29:50.902Z,7.66
2019-02-21T10:30:53.547Z,7.81
2019-02-21T10:31:56.359Z,7.87
2019-02-21T10:32:59.225Z,7.90
2019-02-21T10:34:08.472Z,7.96
2019-02-21T10:35:14.465Z,7.85
2019-02-21T10:36:17.358Z,7.82
2019-02-21T10:37:20.235Z,7.85
2019-02-21T10:38:25.810Z,7.85
2019-02-21T10:39:28.586Z,7.81
2019-02-21T10:40:35.837Z,7.81
2019-02-21T10:41:38.690Z,7.69
2019-02-21T10:42:41.513Z,7.70
2019-02-21T10:43:44.351Z,7.70
2019-02-21T10:44:47.288Z,7.69
2019-02-21T10:45:50.188Z,7.83
2019-02-21T10:46:53.008Z,8.10
2019-02-21T10:47:55.906Z,8.10
2019-02-21T10:49:04.285Z,8.61
2019-02-21T10:50:07.141Z,8.86
2019-02-21T10:51:10.018Z,9.04
2019-02-21T10:52:12.859Z,9.23
2019-02-21T10:53:16.154Z,9.32
2019-02-21T10:54:19.080Z,9.23
2019-02-21T10:55:25.168Z,9.23
2019-02-21T10:56:28.417Z,9.22
2019-02-21T10:57:33.774Z,9.47
2019-02-21T10:58:36.705Z,9.43
2019-02-21T10:59:46.786Z,9.32
2019-02-21T11:00:44.816Z,9.13
2019-02-21T11:01:47.664Z,8.95
2019-02-21T11:02:50.456Z,8.80
2019-02-21T11:03:58.899Z,8.80
2019-02-21T11:05:01.848Z,8.86
2019-02-21T11:06:05.198Z,9.11
2019-02-21T11:07:07.970Z,9.32
2019-02-21T11:08:10.846Z,9.36
2019-02-21T11:09:17.698Z,9.49
2019-02-21T11:10:20.958Z,9.72
2019-02-21T11:11:26.556Z,9.73
2019-02-21T11:12:29.978Z,9.79
2019-02-21T11:13:32.817Z,9.66
2019-02-21T11:14:47.030Z,9.56
2019-02-21T11:15:42.180Z,9.56
2019-02-21T11:16:45.028Z,9.82
2019-02-21T11:17:47.941Z,9.90
2019-02-21T11:18:51.366Z,9.98
2019-02-21T11:19:56.556Z,9.98
2019-02-21T11:20:59.831Z,9.84
2019-02-21T11:22:02.637Z,9.78
2019-02-21T11:23:07.084Z,9.65
2019-02-21T11:24:09.927Z,9.41
2019-02-21T11:25:13.106Z,9.41
2019-02-21T11:26:17.722Z,9.45
2019-02-21T11:27:20.559Z,9.57
2019-02-21T11:28:26.373Z,9.20
2019-02-21T11:29:36.439Z,9.03
2019-02-21T11:43:04.581Z,9.05
2019-02-21T11:44:11.256Z,8.98
2019-02-21T11:45:19.616Z,9.12
2019-02-21T11:46:24.170Z,9.14
2019-02-21T11:47:27.162Z,9.14
2019-02-21T11:48:30.054Z,9.20
2019-02-21T11:49:34.055Z,9.21
2019-02-21T11:50:39.551Z,9.27
2019-02-21T11:51:42.500Z,9.20
2019-02-21T11:52:45.520Z,9.20
2019-02-21T11:53:48.669Z,9.15
2019-02-21T11:54:53.507Z,9.23
2019-02-21T11:56:15.779Z,9.38
2019-02-21T11:57:21.193Z,9.46
2019-02-21T11:58:24.078Z,9.40
2019-02-21T11:59:32.131Z,9.29
2019-02-21T12:00:35.207Z,9.24
2019-02-21T12:01:39.736Z,9.21
2019-02-21T12:02:42.719Z,9.21
2019-02-21T12:03:47.863Z,9.25
2019-02-21T12:04:50.761Z,9.39
2019-02-21T12:05:54.866Z,9.39
2019-02-21T12:06:58.004Z,9.20
2019-02-21T12:08:00.820Z,9.20
2019-02-21T12:09:09.132Z,9.19
2019-02-21T12:10:09.359Z,9.29
2019-02-21T12:11:12.616Z,9.36
2019-02-21T12:12:17.012Z,9.42
2019-02-21T12:13:21.633Z,9.42
2019-02-21T12:14:24.788Z,9.51
2019-02-21T12:15:31.193Z,9.46
2019-02-21T12:16:37.816Z,9.51
2019-02-21T12:17:42.822Z,9.52
2019-02-21T12:18:46.896Z,9.72
2019-02-21T12:20:06.289Z,9.74
2019-02-21T12:21:06.897Z,9.87
2019-02-21T12:22:09.703Z,9.87
2019-02-21T12:23:12.561Z,9.85
2019-02-21T12:24:19.489Z,9.85
2019-02-21T12:25:26.068Z,9.65
2019-02-21T12:26:29.254Z,9.60
2019-02-21T12:27:38.205Z,9.60
2019-02-21T12:28:45.997Z,9.67
2019-02-21T12:29:48.927Z,9.68
2019-02-21T12:30:54.686Z,9.64
2019-02-21T12:31:57.523Z,9.63
2019-02-21T12:33:00.621Z,9.70
2019-02-21T12:34:07.033Z,9.70
2019-02-21T12:35:09.878Z,9.54
2019-02-21T12:36:12.743Z,9.63
2019-02-21T12:37:17.889Z,9.63
2019-02-21T12:38:22.937Z,9.94
2019-02-21T12:39:26.199Z,10.03
2019-02-21T12:40:29.032Z,9.96
2019-02-21T12:41:34.794Z,9.98
2019-02-21T12:42:40.440Z,9.95
2019-02-21T12:43:43.272Z,10.00
2019-02-21T12:44:47.868Z,10.00
2019-02-21T12:45:54.457Z,9.84
2019-02-21T12:47:06.319Z,10.18
2019-02-21T12:48:09.435Z,10.20
2019-02-21T12:49:15.378Z,10.36
2019-02-21T12:50:18.155Z,10.43
2019-02-21T12:51:21.008Z,10.43
2019-02-21T12:52:25.747Z,10.61
2019-02-21T12:53:30.058Z,10.61
2019-02-21T12:54:32.997Z,10.56
2019-02-21T12:55:35.934Z,10.69
2019-02-21T12:56:41.235Z,10.71
2019-02-21T12:57:45.896Z,10.71
2019-02-21T12:58:50.790Z,10.61
2019-02-21T12:59:53.611Z,10.27
2019-02-21T13:00:56.539Z,10.18
2019-02-21T13:01:59.304Z,10.23
2019-02-21T13:03:02.206Z,10.28
2019-02-21T13:04:07.973Z,10.28
2019-02-21T13:05:11.783Z,10.35
2019-02-21T13:06:14.684Z,10.35
2019-02-21T13:07:18.503Z,10.05
2019-02-21T13:08:25.940Z,10.05
2019-02-21T13:09:28.742Z,10.18
2019-02-21T13:10:35.057Z,10.30
2019-02-21T13:11:40.301Z,10.30
2019-02-21T13:12:43.396Z,10.35
2019-02-21T13:13:46.241Z,10.34
2019-02-21T13:14:51.168Z,10.34
2019-02-21T13:15:57.909Z,10.37
2019-02-21T13:17:04.485Z,10.41
2019-02-21T13:18:15.312Z,10.47
2019-02-21T13:19:11.793Z,10.30
2019-02-21T13:20:14.667Z,10.28
2019-02-21T13:21:17.551Z,10.30
2019-02-21T13:22:20.479Z,10.31
2019-02-21T13:23:23.268Z,10.31
2019-02-21T13:24:29.069Z,10.36
2019-02-21T13:25:31.934Z,10.36
2019-02-21T13:26:34.778Z,10.31
2019-02-21T13:27:37.726Z,10.31
2019-02-21T13:28:40.648Z,10.34
2019-02-21T13:29:48.080Z,10.32
2019-02-21T13:30:48.030Z,10.32
2019-02-21T13:31:50.888Z,10.38
2019-02-21T13:35:06.752Z,10.30
2019-02-21T13:36:09.537Z,10.56
2019-02-21T13:37:12.382Z,10.68
2019-02-21T13:38:21.176Z,10.68
2019-02-21T13:39:25.580Z,10.94
2019-02-21T13:40:38.163Z,10.94
2019-02-21T13:41:42.774Z,10.89
2019-02-21T13:42:48.235Z,10.89
2019-02-21T13:43:53.859Z,10.82
2019-02-21T13:44:56.687Z,10.84
2019-02-21T13:46:03.287Z,10.74
2019-02-21T13:47:08.097Z,10.84
2019-02-21T13:48:13.700Z,10.84
2019-02-21T13:49:17.459Z,10.85
2019-02-21T13:50:20.267Z,10.68
2019-02-21T13:51:25.693Z,10.79
2019-02-21T13:52:31.493Z,10.83
2019-02-21T13:53:34.671Z,10.82
2019-02-21T13:54:37.963Z,10.81
2019-02-21T13:55:40.790Z,10.85
2019-02-21T13:56:45.299Z,10.89
2019-02-21T13:57:55.403Z,10.89
2019-02-21T13:58:58.291Z,10.89
2019-02-21T14:00:01.387Z,10.86
2019-02-21T14:01:04.228Z,10.79
2019-02-21T14:02:07.053Z,10.79
2019-02-21T14:03:09.919Z,10.80
2019-02-21T14:04:12.827Z,10.83
2019-02-21T14:05:16.055Z,10.83
2019-02-21T14:06:19.514Z,10.85
2019-02-21T14:07:22.444Z,11.02
2019-02-21T14:08:28.116Z,11.11
2019-02-21T14:09:31.955Z,11.18
2019-02-21T14:10:34.765Z,11.15
2019-02-21T14:11:39.851Z,11.15
2019-02-21T14:12:42.426Z,11.11
2019-02-21T14:13:45.280Z,11.03
2019-02-21T14:14:50.417Z,10.98
2019-02-21T14:15:59.407Z,11.03
2019-02-21T14:17:05.981Z,11.07
2019-02-21T14:18:14.860Z,11.14
2019-02-21T14:19:17.715Z,11.01
2019-02-21T14:20:20.765Z,11.02
2019-02-21T14:21:23.627Z,11.09
2019-02-21T14:22:28.028Z,11.09
2019-02-21T14:23:32.346Z,11.09
2019-02-21T14:24:37.243Z,11.15
2019-02-21T14:25:41.405Z,11.25
2019-02-21T14:26:46.643Z,11.29
2019-02-21T14:27:49.554Z,11.14
2019-02-21T14:28:56.446Z,11.18
2019-02-21T14:30:01.079Z,11.19
2019-02-21T14:31:07.174Z,11.20
2019-02-21T14:32:12.145Z,11.28
2019-02-21T14:33:17.451Z,11.30
2019-02-21T14:34:20.623Z,11.30
2019-02-21T14:35:24.874Z,11.19
2019-02-21T14:36:32.268Z,11.22
2019-02-21T14:37:38.863Z,11.33
2019-02-21T14:38:43.308Z,11.33
2019-02-21T14:39:46.602Z,11.34
2019-02-21T14:40:49.568Z,11.34
2019-02-21T14:41:53.719Z,11.55
2019-02-21T14:42:57.084Z,11.55
2019-02-21T14:44:00.559Z,11.54
2019-02-21T14:45:03.627Z,11.54
2019-02-21T14:46:06.469Z,11.54
2019-02-21T14:47:15.647Z,11.52